createdAt,value
2022-12-08T00:00:57.097Z,11.95
2022-12-08T00:03:07.731Z,11.98
2022-12-08T00:05:28.185Z,13.40
2022-12-08T00:07:48.491Z,11.90
2022-12-08T00:09:56.712Z,11.75
2022-12-08T00:12:06.845Z,12.05
2022-12-08T00:14:15.379Z,10.30
2022-12-08T00:16:23.217Z,14.02
2022-12-08T00:18:37.055Z,17.35
2022-12-08T00:20:45.220Z,13.80
2022-12-08T00:22:52.936Z,11.45
2022-12-08T00:25:00.947Z,11.40
2022-12-08T00:27:09.215Z,11.48
2022-12-08T00:29:17.802Z,12.43
2022-12-08T00:31:25.703Z,11.25
2022-12-08T00:33:36.317Z,11.60
2022-12-08T00:35:45.111Z,12.23
2022-12-08T00:37:57.514Z,11.75
2022-12-08T00:40:10.305Z,13.18
2022-12-08T00:42:18.207Z,13.20
2022-12-08T00:44:26.609Z,14.68
2022-12-08T00:46:34.364Z,15.05
2022-12-08T00:48:44.887Z,11.07
2022-12-08T00:50:53.000Z,11.70
2022-12-08T00:53:00.837Z,12.13
2022-12-08T00:55:09.326Z,13.80
2022-12-08T00:57:17.264Z,15.32
2022-12-08T00:59:25.284Z,13.73
2022-12-08T01:01:34.461Z,14.40
2022-12-08T01:03:46.204Z,13.02
2022-12-08T01:05:54.206Z,13.52
2022-12-08T01:08:02.016Z,11.75
2022-12-08T01:10:11.436Z,14.15
2022-12-08T01:12:19.582Z,14.35
2022-12-08T01:14:29.182Z,13.90
2022-12-08T01:16:41.619Z,13.50
2022-12-08T01:18:53.475Z,15.85
2022-12-08T01:21:05.897Z,13.35
2022-12-08T01:23:14.108Z,13.90
2022-12-08T01:25:23.025Z,14.15
2022-12-08T01:27:30.922Z,15.63
2022-12-08T01:29:38.752Z,16.35
2022-12-08T01:31:47.018Z,17.92
2022-12-08T01:33:58.768Z,15.25
2022-12-08T01:36:07.429Z,15.05
2022-12-08T01:38:15.206Z,16.73
2022-12-08T01:40:23.044Z,14.80
2022-12-08T01:42:32.496Z,15.55
2022-12-08T01:45:02.819Z,13.85
2022-12-08T01:47:11.594Z,15.13
2022-12-08T01:49:25.248Z,13.60
2022-12-08T01:51:39.103Z,15.35
2022-12-08T01:53:47.689Z,14.93
2022-12-08T01:56:00.109Z,14.93
2022-12-08T01:58:14.356Z,15.73
2022-12-08T02:00:26.538Z,15.98
2022-12-08T02:02:41.678Z,15.85
2022-12-08T02:04:52.135Z,18.00
2022-12-08T02:07:06.389Z,14.65
2022-12-08T02:09:15.940Z,15.55
2022-12-08T02:11:24.154Z,19.30
2022-12-08T02:13:32.842Z,16.35
2022-12-08T02:15:52.902Z,15.98
2022-12-08T02:18:16.962Z,16.40
2022-12-08T02:20:52.948Z,15.93
2022-12-08T02:23:07.363Z,14.52
2022-12-08T02:25:23.463Z,17.10
2022-12-08T02:27:55.434Z,12.55
2022-12-08T02:30:21.463Z,16.65
2022-12-08T02:32:57.813Z,16.80
2022-12-08T02:35:14.913Z,19.65
2022-12-08T02:37:32.444Z,14.40
2022-12-08T02:39:48.398Z,13.85
2022-12-08T02:42:02.847Z,17.20
2022-12-08T02:44:18.152Z,16.27
2022-12-08T02:46:31.160Z,14.98
2022-12-08T02:48:39.502Z,15.90
2022-12-08T02:50:49.992Z,15.88
2022-12-08T02:52:58.498Z,15.10
2022-12-08T02:55:11.420Z,14.45
2022-12-08T02:57:33.994Z,20.92
2022-12-08T02:59:55.755Z,18.48
2022-12-08T03:02:25.357Z,15.80
2022-12-08T03:04:45.151Z,17.80
2022-12-08T03:07:06.116Z,17.90
2022-12-08T03:09:21.025Z,15.20
2022-12-08T03:11:38.334Z,16.10
2022-12-08T03:13:50.307Z,16.55
2022-12-08T03:15:59.226Z,14.23
2022-12-08T03:18:11.211Z,15.73
2022-12-08T03:20:23.565Z,16.25
2022-12-08T03:22:34.612Z,14.10
2022-12-08T03:24:44.964Z,17.60
2022-12-08T03:26:57.945Z,16.45
2022-12-08T03:29:06.010Z,19.30
2022-12-08T03:31:19.090Z,14.95
2022-12-08T03:33:30.451Z,16.08
2022-12-08T03:35:42.530Z,17.58
2022-12-08T03:37:53.379Z,19.25
2022-12-08T03:40:02.801Z,19.00
2022-12-08T03:42:12.030Z,17.60
2022-12-08T03:44:19.905Z,18.13
2022-12-08T03:48:37.205Z,18.88
2022-12-08T03:50:44.892Z,19.48
2022-12-08T03:52:55.458Z,21.05
2022-12-08T03:55:03.780Z,17.73
2022-12-08T03:57:11.767Z,18.70
2022-12-08T03:59:19.701Z,20.45
2022-12-08T04:01:28.425Z,19.98
2022-12-08T04:03:36.313Z,21.10
2022-12-08T04:05:44.455Z,18.23
2022-12-08T04:07:52.778Z,18.95
2022-12-08T04:10:03.684Z,18.17
2022-12-08T04:12:13.449Z,18.55
2022-12-08T04:14:22.218Z,19.33
2022-12-08T04:16:30.446Z,18.85
2022-12-08T04:18:39.174Z,18.50
2022-12-08T04:20:48.237Z,20.58
2022-12-08T04:22:55.997Z,18.00
2022-12-08T04:25:07.148Z,19.15
2022-12-08T04:27:14.907Z,19.48
2022-12-08T04:29:23.209Z,17.33
2022-12-08T04:31:31.225Z,19.52
2022-12-08T04:33:39.655Z,16.48
2022-12-08T04:35:47.560Z,19.17
2022-12-08T04:37:55.340Z,20.85
2022-12-08T04:40:03.540Z,17.50
2022-12-08T04:42:14.223Z,20.17
2022-12-08T04:44:22.455Z,19.85
2022-12-08T04:46:30.303Z,16.70
2022-12-08T04:48:40.558Z,19.00
2022-12-08T04:50:49.422Z,18.67
2022-12-08T04:52:58.512Z,18.33
2022-12-08T04:55:08.267Z,17.77
2022-12-08T04:57:19.766Z,17.20
2022-12-08T04:59:28.665Z,16.92
2022-12-08T05:01:36.615Z,17.30
2022-12-08T05:03:44.598Z,16.15
2022-12-08T05:05:52.388Z,19.25
2022-12-08T05:08:00.560Z,19.75
2022-12-08T05:10:11.297Z,17.52
2022-12-08T05:12:21.823Z,20.17
2022-12-08T05:14:29.965Z,18.48
2022-12-08T05:16:37.742Z,19.38
2022-12-08T05:18:46.510Z,20.35
2022-12-08T05:20:54.336Z,18.70
2022-12-08T05:23:02.195Z,21.50
2022-12-08T05:25:11.118Z,35.72
2022-12-08T05:27:21.594Z,30.08
2022-12-08T05:29:30.060Z,34.60
2022-12-08T05:31:38.342Z,32.28
2022-12-08T05:33:46.472Z,31.58
2022-12-08T05:35:54.402Z,23.05
2022-12-08T05:38:03.494Z,26.25
2022-12-08T05:40:12.239Z,23.75
2022-12-08T05:42:24.939Z,21.80
2022-12-08T05:44:33.706Z,21.70
2022-12-08T05:46:42.488Z,19.17
2022-12-08T05:48:50.380Z,21.38
2022-12-08T05:50:59.004Z,20.73
2022-12-08T05:53:07.027Z,18.63
2022-12-08T05:55:15.229Z,18.70
2022-12-08T05:57:25.847Z,18.83
2022-12-08T05:59:33.567Z,18.40
2022-12-08T06:01:42.690Z,18.63
2022-12-08T06:03:50.925Z,19.50
2022-12-08T06:05:59.333Z,20.52
2022-12-08T06:08:07.406Z,18.88
2022-12-08T06:10:15.774Z,18.50
2022-12-08T06:12:26.160Z,21.05
2022-12-08T06:14:34.328Z,23.70
2022-12-08T06:16:43.445Z,19.70
2022-12-08T06:18:51.837Z,21.27
2022-12-08T06:21:05.432Z,23.77
2022-12-08T06:23:13.148Z,21.95
2022-12-08T06:25:21.168Z,25.30
2022-12-08T06:27:31.917Z,17.77
2022-12-08T06:29:39.876Z,18.52
2022-12-08T06:31:47.899Z,20.98
2022-12-08T06:33:58.038Z,21.80
2022-12-08T06:36:05.967Z,23.02
2022-12-08T06:38:14.293Z,19.85
2022-12-08T06:40:22.965Z,21.08
2022-12-08T06:42:48.188Z,20.02
2022-12-08T06:44:56.610Z,23.02
2022-12-08T06:47:04.446Z,22.75
2022-12-08T06:49:13.319Z,24.13
2022-12-08T06:51:23.664Z,24.52
2022-12-08T06:53:31.400Z,27.88
2022-12-08T06:55:58.723Z,21.52
2022-12-08T06:58:09.559Z,22.33
2022-12-08T07:00:18.956Z,26.52
2022-12-08T07:02:27.048Z,22.10
2022-12-08T07:04:34.839Z,26.10
2022-12-08T07:06:43.203Z,21.30
2022-12-08T07:08:50.955Z,24.77
2022-12-08T07:10:58.800Z,20.27
2022-12-08T07:13:09.656Z,20.95
2022-12-08T07:15:17.826Z,22.98
2022-12-08T07:17:25.612Z,21.40
2022-12-08T07:19:34.516Z,21.65
2022-12-08T07:21:42.417Z,20.85
2022-12-08T07:23:57.307Z,22.75
2022-12-08T07:26:07.874Z,21.08
2022-12-08T07:28:18.360Z,23.05
2022-12-08T07:30:26.168Z,25.05
2022-12-08T07:32:34.889Z,21.45
2022-12-08T07:34:43.714Z,24.67
2022-12-08T07:36:51.773Z,27.20
2022-12-08T07:39:00.013Z,26.73
2022-12-08T07:41:08.277Z,26.05
2022-12-08T07:43:19.176Z,23.25
2022-12-08T07:45:31.485Z,27.65
2022-12-08T07:47:40.407Z,24.73
2022-12-08T07:49:48.514Z,32.38
2022-12-08T07:51:56.307Z,32.13
2022-12-08T07:54:04.115Z,21.60
2022-12-08T07:56:13.201Z,22.30
2022-12-08T07:58:23.780Z,23.52
2022-12-08T08:00:31.579Z,30.92
2022-12-08T08:02:39.545Z,25.48
2022-12-08T08:04:48.634Z,25.73
2022-12-08T08:06:58.711Z,30.02
2022-12-08T08:09:08.966Z,26.42
2022-12-08T08:11:21.430Z,24.17
2022-12-08T08:13:33.491Z,26.90
2022-12-08T08:15:41.632Z,25.00
2022-12-08T08:17:54.052Z,29.23
2022-12-08T08:20:02.925Z,31.17
2022-12-08T08:22:12.394Z,24.67
2022-12-08T08:24:21.708Z,28.98
2022-12-08T08:26:29.619Z,30.98
2022-12-08T08:28:40.061Z,28.27
2022-12-08T08:30:49.354Z,28.75
2022-12-08T08:32:57.068Z,27.60
2022-12-08T08:35:06.587Z,26.90
2022-12-08T08:37:14.575Z,25.90
2022-12-08T08:39:22.437Z,24.15
2022-12-08T08:41:30.418Z,26.90
2022-12-08T08:43:41.264Z,26.05
2022-12-08T08:45:49.593Z,23.15
2022-12-08T08:47:57.921Z,24.80
2022-12-08T08:50:06.664Z,26.63
2022-12-08T08:52:16.204Z,32.00
2022-12-08T08:54:25.230Z,29.88
2022-12-08T08:56:33.241Z,26.63
2022-12-08T08:58:45.336Z,23.92
2022-12-08T09:00:54.999Z,25.23
2022-12-08T09:03:04.473Z,25.58
2022-12-08T09:05:13.663Z,28.50
2022-12-08T09:07:22.728Z,25.67
2022-12-08T09:09:31.332Z,24.73
2022-12-08T09:11:39.685Z,24.45
2022-12-08T09:13:51.525Z,26.00
2022-12-08T09:16:00.837Z,24.05
2022-12-08T09:18:09.733Z,19.67
2022-12-08T09:20:17.628Z,15.55
2022-12-08T09:22:25.587Z,15.40
2022-12-08T09:24:33.515Z,15.52
2022-12-08T09:26:41.827Z,13.32
2022-12-08T09:28:52.721Z,13.70
2022-12-08T09:31:00.798Z,14.20
2022-12-08T09:33:10.433Z,14.05
2022-12-08T09:35:18.496Z,12.10
2022-12-08T09:37:26.354Z,12.73
2022-12-08T09:39:34.962Z,14.20
2022-12-08T09:41:50.148Z,11.52
2022-12-08T09:44:12.144Z,10.95
2022-12-08T09:46:22.235Z,10.45
2022-12-08T09:48:37.437Z,12.65
2022-12-08T09:50:52.759Z,14.13
2022-12-08T09:53:08.795Z,14.50
2022-12-08T09:55:25.572Z,18.52
2022-12-08T09:57:33.773Z,11.43
2022-12-08T09:59:50.686Z,15.40
2022-12-08T10:01:59.691Z,13.32
2022-12-08T10:04:17.140Z,12.13
2022-12-08T10:06:34.029Z,11.93
2022-12-08T10:08:51.116Z,10.68
2022-12-08T10:11:07.306Z,12.23
2022-12-08T10:13:23.933Z,11.00
2022-12-08T10:15:53.842Z,11.73
2022-12-08T10:18:06.168Z,12.23
2022-12-08T10:20:18.866Z,11.80
2022-12-08T10:22:28.592Z,16.63
2022-12-08T10:24:40.820Z,10.25
2022-12-08T10:26:50.007Z,12.75
2022-12-08T10:29:03.229Z,11.38
2022-12-08T10:31:19.233Z,13.20
2022-12-08T10:33:30.283Z,11.35
2022-12-08T10:35:52.712Z,11.52
2022-12-08T10:38:02.664Z,13.32
2022-12-08T10:40:15.947Z,11.50
2022-12-08T10:42:26.250Z,11.52
2022-12-08T10:44:37.974Z,14.55
2022-12-08T10:46:50.913Z,12.13
2022-12-08T10:49:16.438Z,12.45
2022-12-08T10:51:33.735Z,11.70
2022-12-08T10:53:49.825Z,11.88
2022-12-08T10:56:10.671Z,10.73
2022-12-08T10:58:30.324Z,13.15
2022-12-08T11:00:42.644Z,12.63
2022-12-08T11:03:01.005Z,14.23
2022-12-08T11:05:11.449Z,10.82
2022-12-08T11:07:25.784Z,13.40
2022-12-08T11:09:49.029Z,11.35
2022-12-08T11:11:59.945Z,11.18
2022-12-08T11:14:10.934Z,10.00
2022-12-08T11:16:21.083Z,14.70
2022-12-08T11:18:33.968Z,10.18
2022-12-08T11:20:43.757Z,10.88
2022-12-08T11:22:56.526Z,10.75
2022-12-08T11:25:13.511Z,10.02
2022-12-08T11:27:21.539Z,12.35
2022-12-08T11:29:30.788Z,10.85
2022-12-08T11:31:44.347Z,11.77
2022-12-08T11:33:56.315Z,10.73
2022-12-08T11:36:13.246Z,9.55
2022-12-08T11:38:24.400Z,9.40
2022-12-08T11:40:37.368Z,9.75
2022-12-08T11:42:57.999Z,8.95
2022-12-08T11:45:13.377Z,9.18
2022-12-08T11:47:27.711Z,10.80
2022-12-08T11:49:41.178Z,9.50
2022-12-08T11:51:55.966Z,9.00
2022-12-08T11:54:15.538Z,9.88
2022-12-08T11:56:28.289Z,9.77
2022-12-08T11:58:42.633Z,9.63
2022-12-08T12:00:51.263Z,8.98
2022-12-08T12:03:05.764Z,13.18
2022-12-08T12:06:05.381Z,9.48
2022-12-08T12:08:12.545Z,8.85
2022-12-08T12:10:41.018Z,7.90
2022-12-08T12:13:02.163Z,9.05
2022-12-08T12:15:37.295Z,8.85
2022-12-08T12:17:51.032Z,8.90
2022-12-08T12:20:03.013Z,8.25
2022-12-08T12:22:20.435Z,8.52
2022-12-08T12:24:36.293Z,7.95
2022-12-08T12:26:58.684Z,7.20
2022-12-08T12:29:09.814Z,7.88
2022-12-08T12:31:21.049Z,7.45
2022-12-08T12:33:29.833Z,9.30
2022-12-08T12:35:41.690Z,7.45
2022-12-08T12:37:52.506Z,7.15
2022-12-08T12:40:05.254Z,7.75
2022-12-08T12:42:41.693Z,8.35
2022-12-08T12:44:49.568Z,8.82
2022-12-08T12:47:03.135Z,8.02
2022-12-08T12:49:51.430Z,7.78
2022-12-08T12:51:59.399Z,10.20
2022-12-08T12:54:29.475Z,7.95
2022-12-08T12:56:57.016Z,6.82
2022-12-08T12:59:55.831Z,7.32
2022-12-08T13:02:04.440Z,7.65
2022-12-08T13:04:13.445Z,7.13
2022-12-08T13:06:36.262Z,8.77
2022-12-08T13:08:53.613Z,8.18
2022-12-08T13:11:09.193Z,8.32
2022-12-08T13:13:21.428Z,8.05
2022-12-08T13:15:36.020Z,9.55
2022-12-08T13:17:49.311Z,9.02
2022-12-08T13:20:01.006Z,10.63
2022-12-08T13:22:38.903Z,10.30
2022-12-08T13:24:47.208Z,8.45
2022-12-08T13:27:54.515Z,8.48
2022-12-08T13:30:32.882Z,8.48
2022-12-08T13:35:29.816Z,7.10
2022-12-08T13:37:55.030Z,6.60
2022-12-08T13:40:08.565Z,7.20
2022-12-08T13:42:25.065Z,9.10
2022-12-08T13:47:33.529Z,6.82
2022-12-08T13:57:30.269Z,7.43
2022-12-08T13:59:48.182Z,5.72
2022-12-08T14:01:56.228Z,6.40
2022-12-08T14:04:34.111Z,5.80
2022-12-08T14:06:40.342Z,6.55
2022-12-08T14:09:06.933Z,5.72
2022-12-08T14:11:36.446Z,6.13
2022-12-08T14:13:45.150Z,5.38
2022-12-08T14:15:55.922Z,5.70
2022-12-08T14:18:05.063Z,6.57
2022-12-08T14:20:25.421Z,6.53
2022-12-08T14:22:37.670Z,6.68
2022-12-08T14:24:49.025Z,7.53
2022-12-08T14:26:59.001Z,6.80
2022-12-08T14:29:11.366Z,6.40
2022-12-08T14:31:22.273Z,6.57
2022-12-08T14:33:31.101Z,6.57
2022-12-08T14:35:41.859Z,6.90
2022-12-08T14:37:53.259Z,6.00
2022-12-08T14:40:05.508Z,7.22
2022-12-08T14:42:24.658Z,7.72
2022-12-08T14:44:36.089Z,6.57
2022-12-08T14:47:06.746Z,7.50
2022-12-08T14:49:36.787Z,8.35
2022-12-08T14:51:44.793Z,6.95
2022-12-08T14:53:59.109Z,7.30
2022-12-08T14:56:11.136Z,6.15
2022-12-08T14:58:24.996Z,7.35
2022-12-08T15:00:34.353Z,9.15
2022-12-08T15:02:48.905Z,7.82
2022-12-08T15:05:03.134Z,7.00
2022-12-08T15:07:16.769Z,9.73
2022-12-08T15:09:35.121Z,7.10
2022-12-08T15:11:45.129Z,6.55
2022-12-08T15:13:55.986Z,8.55
2022-12-08T15:16:06.462Z,7.88
2022-12-08T15:18:20.090Z,7.80
2022-12-08T15:20:39.864Z,7.28
2022-12-08T15:22:47.751Z,10.05
2022-12-08T15:24:55.597Z,9.07
2022-12-08T15:27:03.694Z,9.48
2022-12-08T15:29:21.014Z,7.90
2022-12-08T15:31:28.892Z,8.23
2022-12-08T15:33:39.584Z,9.13
2022-12-08T15:35:47.942Z,8.85
2022-12-08T15:37:56.938Z,10.32
2022-12-08T15:40:06.472Z,10.10
2022-12-08T15:42:16.063Z,9.85
2022-12-08T15:44:23.935Z,8.23
2022-12-08T15:46:34.541Z,10.50
2022-12-08T15:48:45.507Z,8.57
2022-12-08T15:50:53.713Z,9.00
2022-12-08T15:53:01.552Z,9.05
2022-12-08T15:55:09.924Z,9.77
2022-12-08T15:58:04.628Z,10.63
2022-12-08T15:59:53.078Z,9.25
2022-12-08T16:02:02.380Z,10.68
2022-12-08T16:09:25.097Z,12.23
2022-12-08T16:15:15.956Z,11.48
2022-12-08T16:16:43.583Z,13.35
2022-12-08T16:18:52.778Z,10.48
2022-12-08T16:23:43.165Z,10.32
2022-12-08T16:26:20.171Z,9.85
2022-12-08T16:28:52.817Z,11.00
2022-12-08T16:30:49.029Z,9.43
2022-12-08T16:32:57.170Z,10.35
2022-12-08T16:35:05.485Z,9.93
2022-12-08T16:37:19.473Z,11.00
2022-12-08T16:39:28.506Z,11.32
2022-12-08T16:41:48.800Z,10.43
2022-12-08T16:43:56.559Z,9.52
2022-12-08T16:46:04.924Z,11.05
2022-12-08T16:48:16.946Z,10.13
2022-12-08T16:50:26.810Z,12.35
2022-12-08T16:52:37.666Z,13.27
2022-12-08T16:54:45.450Z,12.18
2022-12-08T16:56:53.914Z,14.27
2022-12-08T16:59:02.099Z,12.20
2022-12-08T17:01:16.035Z,14.80
2022-12-08T17:03:26.172Z,12.10
2022-12-08T17:05:35.645Z,12.18
2022-12-08T17:07:47.310Z,13.25
2022-12-08T17:09:56.418Z,13.55
2022-12-08T17:12:04.616Z,13.52
2022-12-08T17:14:12.876Z,13.27
2022-12-08T17:16:22.432Z,12.10
2022-12-08T17:18:31.061Z,12.80
2022-12-08T17:20:39.306Z,12.23
2022-12-08T17:22:52.000Z,11.38
2022-12-08T17:24:59.732Z,16.75
2022-12-08T17:27:07.800Z,11.55
2022-12-08T17:29:15.512Z,13.38
2022-12-08T17:31:27.769Z,11.00
2022-12-08T17:33:37.871Z,15.00
2022-12-08T17:35:50.668Z,12.35
2022-12-08T17:38:01.404Z,11.85
2022-12-08T17:40:10.896Z,10.55
2022-12-08T17:42:19.076Z,11.05
2022-12-08T17:44:28.228Z,12.48
2022-12-08T17:46:41.617Z,11.25
2022-12-08T17:48:50.761Z,11.00
2022-12-08T17:51:02.088Z,11.68
2022-12-08T17:53:14.030Z,10.25
2022-12-08T17:55:22.376Z,9.93
2022-12-08T17:57:31.464Z,11.35
2022-12-08T17:59:40.547Z,11.70
2022-12-08T18:01:49.115Z,13.68
2022-12-08T18:03:57.244Z,12.52
2022-12-08T18:06:08.381Z,16.25
2022-12-08T18:08:18.931Z,11.52
2022-12-08T18:10:27.194Z,12.82
2022-12-08T18:12:35.401Z,11.15
2022-12-08T18:14:43.175Z,12.35
2022-12-08T18:16:52.598Z,11.95
2022-12-08T18:19:00.666Z,11.35
2022-12-08T18:21:10.184Z,13.32
2022-12-08T18:23:20.825Z,15.82
2022-12-08T18:25:28.610Z,14.05
2022-12-08T18:27:43.054Z,17.25
2022-12-08T18:29:52.661Z,12.95
2022-12-08T18:32:00.509Z,14.73
2022-12-08T18:34:08.693Z,15.68
2022-12-08T18:36:18.839Z,13.85
2022-12-08T18:38:30.376Z,16.75
2022-12-08T18:40:39.696Z,14.00
2022-12-08T18:42:47.703Z,14.32
2022-12-08T18:45:03.048Z,14.15
2022-12-08T18:47:14.558Z,13.93
2022-12-08T18:49:24.273Z,16.77
2022-12-08T18:51:34.020Z,14.95
2022-12-08T18:53:46.929Z,15.43
2022-12-08T18:55:54.912Z,15.77
2022-12-08T18:58:02.966Z,15.88
2022-12-08T19:00:16.652Z,18.98
2022-12-08T19:02:25.463Z,18.15
2022-12-08T19:04:38.544Z,16.42
2022-12-08T19:06:47.102Z,16.48
2022-12-08T19:08:57.713Z,16.77
2022-12-08T19:11:05.777Z,15.60
2022-12-08T19:13:13.573Z,15.07
2022-12-08T19:15:21.713Z,15.55
2022-12-08T19:17:29.950Z,15.27
2022-12-08T19:19:38.664Z,17.23
2022-12-08T19:21:49.986Z,14.18
2022-12-08T19:24:01.652Z,14.77
2022-12-08T19:26:12.117Z,15.40
2022-12-08T19:28:20.416Z,17.77
2022-12-08T19:30:29.606Z,17.30
2022-12-08T19:32:37.343Z,16.75
2022-12-08T19:34:46.674Z,16.98
2022-12-08T19:36:54.542Z,16.35
2022-12-08T19:39:17.728Z,15.48
2022-12-08T19:41:39.752Z,15.18
2022-12-08T19:44:00.078Z,19.67
2022-12-08T19:46:08.953Z,16.30
2022-12-08T19:48:16.892Z,14.60
2022-12-08T19:50:38.743Z,16.30
2022-12-08T19:52:47.402Z,21.83
2022-12-08T19:54:58.138Z,17.60
2022-12-08T19:57:05.995Z,24.88
2022-12-08T19:59:15.786Z,24.63
2022-12-08T20:01:25.151Z,19.90
2022-12-08T20:03:33.437Z,15.65
2022-12-08T20:05:43.673Z,15.77
2022-12-08T20:07:52.414Z,17.50
2022-12-08T20:10:04.577Z,24.65
2022-12-08T20:12:15.152Z,26.15
2022-12-08T20:14:24.224Z,26.45
2022-12-08T20:16:32.432Z,22.40
2022-12-08T20:18:40.811Z,22.98
2022-12-08T20:20:51.637Z,25.42
2022-12-08T20:22:59.389Z,23.50
2022-12-08T20:25:15.495Z,24.40
2022-12-08T20:27:27.517Z,22.30
2022-12-08T20:29:41.374Z,22.15
2022-12-08T20:31:50.196Z,25.58
2022-12-08T20:34:02.146Z,22.48
2022-12-08T20:36:11.006Z,24.92
2022-12-08T20:38:21.204Z,24.67
2022-12-08T20:40:33.567Z,25.00
2022-12-08T20:42:42.038Z,24.65
2022-12-08T20:44:52.881Z,22.17
2022-12-08T20:47:03.281Z,15.27
2022-12-08T20:49:11.416Z,15.75
2022-12-08T20:51:32.022Z,20.60
2022-12-08T20:53:42.769Z,19.25
2022-12-08T20:55:59.895Z,21.80
2022-12-08T20:58:09.018Z,18.08
2022-12-08T21:00:21.802Z,17.63
2022-12-08T21:02:30.279Z,22.30
2022-12-08T21:04:38.908Z,20.42
2022-12-08T21:06:47.507Z,19.15
2022-12-08T21:08:55.933Z,16.15
2022-12-08T21:11:08.821Z,15.60
2022-12-08T21:13:17.082Z,13.50
2022-12-08T21:15:26.299Z,16.52
2022-12-08T21:17:37.323Z,18.23
2022-12-08T21:19:49.364Z,15.25
2022-12-08T21:22:00.363Z,13.85
2022-12-08T21:24:11.256Z,11.75
2022-12-08T21:26:26.407Z,12.77
2022-12-08T21:28:35.587Z,11.85
2022-12-08T21:30:44.425Z,11.02
2022-12-08T21:32:52.672Z,12.02
2022-12-08T21:35:00.963Z,11.38
2022-12-08T21:37:09.436Z,12.50
2022-12-08T21:39:17.600Z,13.43
2022-12-08T21:41:40.867Z,12.10
2022-12-08T21:43:49.084Z,10.80
2022-12-08T21:45:58.295Z,12.25
2022-12-08T21:48:11.388Z,13.00
2022-12-08T21:50:21.221Z,13.23
2022-12-08T21:52:30.373Z,11.77
2022-12-08T21:54:39.598Z,13.27
2022-12-08T21:56:51.371Z,14.07
2022-12-08T21:59:00.327Z,13.75
2022-12-08T22:01:09.480Z,13.77
2022-12-08T22:03:18.572Z,13.40
2022-12-08T22:05:27.649Z,13.93
2022-12-08T22:07:37.114Z,18.65
2022-12-08T22:09:46.358Z,15.15
2022-12-08T22:11:57.252Z,19.05
2022-12-08T22:14:08.377Z,15.43
2022-12-08T22:16:20.894Z,14.70
2022-12-08T22:18:28.991Z,14.07
2022-12-08T22:20:42.295Z,15.48
2022-12-08T22:22:51.948Z,15.68
2022-12-08T22:24:59.927Z,17.35
2022-12-08T22:27:10.500Z,20.20
2022-12-08T22:29:18.709Z,16.88
2022-12-08T22:31:27.006Z,19.10
2022-12-08T22:33:35.304Z,18.08
2022-12-08T22:35:43.929Z,17.13
2022-12-08T22:37:52.581Z,16.75
2022-12-08T22:40:01.387Z,16.92
2022-12-08T22:42:12.199Z,18.80
2022-12-08T22:44:20.152Z,18.40
2022-12-08T22:46:29.898Z,17.70
2022-12-08T22:48:37.844Z,17.42
2022-12-08T22:50:46.310Z,17.35
2022-12-08T22:52:54.472Z,19.13
2022-12-08T22:55:02.216Z,17.17
2022-12-08T22:57:12.785Z,17.35
2022-12-08T22:59:21.932Z,17.88
2022-12-08T23:01:32.758Z,20.00
2022-12-08T23:03:46.191Z,19.77
2022-12-08T23:05:55.584Z,17.85
2022-12-08T23:08:18.036Z,18.95
2022-12-08T23:10:26.232Z,18.88
2022-12-08T23:12:36.975Z,22.33
2022-12-08T23:14:45.100Z,19.05
2022-12-08T23:16:53.378Z,19.95
2022-12-08T23:19:01.883Z,21.48
2022-12-08T23:21:11.636Z,18.42
2022-12-08T23:23:20.841Z,18.83
2022-12-08T23:25:29.996Z,18.17
2022-12-08T23:27:40.837Z,17.65
2022-12-08T23:29:49.859Z,19.27
2022-12-08T23:31:57.844Z,16.05
2022-12-08T23:34:06.547Z,17.80
2022-12-08T23:36:15.587Z,19.60
2022-12-08T23:38:23.492Z,18.67
2022-12-08T23:40:31.929Z,19.45
2022-12-08T23:42:42.532Z,16.90
2022-12-08T23:44:50.786Z,18.25
2022-12-08T23:46:58.764Z,19.92
2022-12-08T23:49:06.701Z,20.80
2022-12-08T23:51:16.058Z,20.33
2022-12-08T23:53:24.379Z,19.42
2022-12-08T23:55:32.251Z,19.05
2022-12-08T23:57:42.708Z,19.92
2022-12-08T23:59:51.188Z,18.08
